Terminal Aerodrome Forecast
Issued by NWS

Home | Current Version | Previous Version | Text Only | Print | Product List | Glossary On
Versions: 1 2 3 4 5 6 7 8 9 10 11 12 13 14 15 16 17 18
000
FTUS44 KTSA 261100
TAFFYV
TAF
KFYV 261120Z 2612/2712 00000KT P6SM SCT110
     FM261500 27006KT P6SM OVC110
     FM261900 29015G24KT P6SM SCT250
     FM270300 31010KT P6SM SCT250=

USA.gov is the U.S. government's official web portal to all federal, state and local government web resources and services.